Time;durP1;ratioP1;P1;durP2;ratioP2;P2;SDS_P1;SDS_P2;PMS_P1;PMS_P2;Temp;Humidity;BMP_temperature;BMP_pressure;BME280_temperature;BME280_humidity;BME280_pressure;Samples;Min_cycle;Max_cycle;Signal;HPM_P1;HPM_P2
2023/04/01 00:00:16;;;;;;;4.60;2.50;;;;;;;;;;5090134;28;20455;-73
2023/04/01 00:02:47;;;;;;;6.90;3.93;;;;;;;;;;5059296;28;20511;-73
2023/04/01 00:05:16;;;;;;;7.63;3.40;;;;;;;;;;4994381;28;20951;-72
2023/04/01 00:07:43;;;;;;;5.30;2.80;;;;;;;;;;5046965;28;20531;-72
2023/04/01 00:10:14;;;;;;;9.03;3.03;;;;;;;;;;5056605;28;20488;-73
2023/04/01 00:12:42;;;;;;;11.60;2.93;;;;;;;;;;5012171;28;20576;-72
2023/04/01 00:15:10;;;;;;;7.60;3.27;;;;;;;;;;5011883;28;20456;-72
2023/04/01 00:17:38;;;;;;;4.90;3.10;;;;;;;;;;5012044;28;20840;-72
2023/04/01 00:20:14;;;;;;;5.90;2.93;;;;;;;;;;5012064;28;20452;-72
2023/04/01 00:22:42;;;;;;;5.33;2.50;;;;;;;;;;5011411;28;20478;-73
2023/04/01 00:25:10;;;;;;;9.97;3.07;;;;;;;;;;5011929;28;20488;-73
2023/04/01 00:27:37;;;;;;;6.90;2.80;;;;;;;;;;5013417;28;20482;-73
2023/04/01 00:30:15;;;;;;;9.93;2.97;;;;;;;;;;5039141;28;20461;-73
2023/04/01 00:32:45;;;;;;;7.27;2.83;;;;;;;;;;5075566;28;20962;-73
2023/04/01 00:35:13;;;;;;;5.57;3.17;;;;;;;;;;5074434;28;20552;-73
2023/04/01 00:37:40;;;;;;;3.90;2.27;;;;;;;;;;5048543;28;20460;-72
2023/04/01 00:40:24;;;;;;;6.83;2.43;;;;;;;;;;5012866;28;20575;-73
2023/04/01 00:42:52;;;;;;;4.90;2.43;;;;;;;;;;5013324;28;20891;-73
2023/04/01 00:45:29;;;;;;;5.90;2.60;;;;;;;;;;5041291;28;20453;-72
2023/04/01 00:48:03;;;;;;;9.00;2.50;;;;;;;;;;5045798;28;20478;-73
2023/04/01 00:50:35;;;;;;;5.97;2.53;;;;;;;;;;5015863;28;20452;-71
2023/04/01 00:53:04;;;;;;;5.23;2.43;;;;;;;;;;4995041;28;20440;-73
2023/04/01 00:55:34;;;;;;;4.80;2.67;;;;;;;;;;5003155;28;20448;-73
2023/04/01 00:58:04;;;;;;;5.97;2.27;;;;;;;;;;5013288;28;20451;-72
2023/04/01 01:00:37;;;;;;;5.40;3.03;;;;;;;;;;5056825;28;20440;-74
2023/04/01 01:03:10;;;;;;;8.47;3.20;;;;;;;;;;5070979;28;20479;-72
2023/04/01 01:05:48;;;;;;;7.13;2.57;;;;;;;;;;4995246;28;20554;-73
2023/04/01 01:08:21;;;;;;;6.27;2.60;;;;;;;;;;4987582;28;20861;-72
2023/04/01 01:10:53;;;;;;;6.50;2.87;;;;;;;;;;5014722;28;20448;-73
2023/04/01 01:13:26;;;;;;;5.50;3.10;;;;;;;;;;5082822;28;20440;-72
2023/04/01 01:16:00;;;;;;;6.53;3.10;;;;;;;;;;5050322;28;21037;-73
2023/04/01 01:18:34;;;;;;;9.93;3.00;;;;;;;;;;5004506;28;20548;-73
2023/04/01 01:21:28;;;;;;;8.10;2.93;;;;;;;;;;5043899;28;20448;-73
2023/04/01 01:24:21;;;;;;;6.13;2.40;;;;;;;;;;5050080;28;20573;-72
2023/04/01 01:27:00;;;;;;;7.30;3.20;;;;;;;;;;5020300;28;20759;-72
2023/04/01 01:29:43;;;;;;;6.77;2.90;;;;;;;;;;4994070;28;20983;-71
2023/04/01 01:32:21;;;;;;;4.87;2.20;;;;;;;;;;5003808;28;20464;-73
2023/04/01 01:34:54;;;;;;;4.17;2.20;;;;;;;;;;5002311;28;20539;-73
2023/04/01 01:37:32;;;;;;;4.20;2.70;;;;;;;;;;5051283;28;20788;-71
2023/04/01 01:40:11;;;;;;;6.27;2.83;;;;;;;;;;5011532;28;20451;-73
2023/04/01 01:42:43;;;;;;;3.60;2.53;;;;;;;;;;5045632;28;20492;-72
2023/04/01 01:45:23;;;;;;;5.20;2.63;;;;;;;;;;5040008;28;20918;-74
2023/04/01 01:47:55;;;;;;;7.00;2.47;;;;;;;;;;5037710;28;20468;-71
2023/04/01 01:50:31;;;;;;;7.67;2.57;;;;;;;;;;5049044;28;21312;-71
2023/04/01 01:53:04;;;;;;;7.03;2.57;;;;;;;;;;5043202;28;20459;-72
2023/04/01 01:55:43;;;;;;;5.73;2.80;;;;;;;;;;5027985;28;20881;-71
2023/04/01 01:58:13;;;;;;;2.63;1.83;;;;;;;;;;5003078;28;20441;-71
2023/04/01 02:00:45;;;;;;;3.33;2.00;;;;;;;;;;5009555;28;20496;-74
2023/04/01 02:03:17;;;;;;;7.50;2.30;;;;;;;;;;4977179;28;20912;-72
2023/04/01 02:05:46;;;;;;;6.17;2.47;;;;;;;;;;4978061;28;20461;-73
2023/04/01 02:08:17;;;;;;;8.63;2.70;;;;;;;;;;4976653;28;20461;-73
2023/04/01 02:10:49;;;;;;;4.13;2.13;;;;;;;;;;4977757;28;20543;-73
2023/04/01 02:13:20;;;;;;;4.70;2.50;;;;;;;;;;4996454;28;20712;-73
2023/04/01 02:15:49;;;;;;;8.70;3.17;;;;;;;;;;5016188;28;20459;-72
2023/04/01 02:18:17;;;;;;;3.43;1.73;;;;;;;;;;5014356;28;20459;-73
2023/04/01 02:20:46;;;;;;;4.97;2.60;;;;;;;;;;5016188;28;20471;-72
2023/04/01 02:23:15;;;;;;;7.23;2.90;;;;;;;;;;5013599;28;20657;-72
2023/04/01 02:25:44;;;;;;;8.37;2.33;;;;;;;;;;5010574;28;20487;-72
2023/04/01 02:28:12;;;;;;;4.00;2.10;;;;;;;;;;5013143;28;20549;-72
2023/04/01 02:30:41;;;;;;;6.13;2.70;;;;;;;;;;5012912;28;20622;-72
2023/04/01 02:36:14;;;;;;;6.20;2.00;;;;;;;;;;5090877;27;21198;-72
2023/04/01 02:38:42;;;;;;;4.37;2.40;;;;;;;;;;5090288;28;20735;-71
2023/04/01 02:41:09;;;;;;;6.33;2.37;;;;;;;;;;5093746;28;20807;-71
2023/04/01 02:43:39;;;;;;;4.00;2.77;;;;;;;;;;5094285;28;20937;-73
2023/04/01 02:46:08;;;;;;;5.70;3.20;;;;;;;;;;5092623;28;20731;-73
2023/04/01 02:48:37;;;;;;;11.13;2.70;;;;;;;;;;5093496;28;20517;-72
2023/04/01 02:51:04;;;;;;;4.60;2.70;;;;;;;;;;5095254;28;20509;-72
2023/04/01 02:53:36;;;;;;;4.73;2.33;;;;;;;;;;5095341;28;20448;-72
2023/04/01 02:56:06;;;;;;;5.00;2.40;;;;;;;;;;5094372;28;20498;-72
2023/04/01 02:58:35;;;;;;;5.73;2.70;;;;;;;;;;5093974;28;20496;-72
2023/04/01 03:01:04;;;;;;;5.13;2.40;;;;;;;;;;5094504;28;20864;-73
2023/04/01 03:03:32;;;;;;;5.83;2.27;;;;;;;;;;5093214;28;20448;-73
2023/04/01 03:06:00;;;;;;;6.93;3.20;;;;;;;;;;5092216;28;20463;-73
2023/04/01 03:08:27;;;;;;;4.03;2.47;;;;;;;;;;5092883;28;20525;-73
2023/04/01 03:10:55;;;;;;;5.50;3.13;;;;;;;;;;5093889;28;20447;-73
2023/04/01 03:13:23;;;;;;;6.20;2.77;;;;;;;;;;5093589;28;20460;-73
2023/04/01 03:15:51;;;;;;;5.53;2.20;;;;;;;;;;5092757;28;20499;-73
2023/04/01 03:18:18;;;;;;;5.57;2.43;;;;;;;;;;5090068;28;20902;-73
2023/04/01 03:21:19;;;;;;;4.77;2.03;;;;;;;;;;5092793;28;20466;-74
2023/04/01 03:23:47;;;;;;;10.47;3.37;;;;;;;;;;5093163;28;21020;-73
2023/04/01 03:26:21;;;;;;;3.03;2.10;;;;;;;;;;5091712;28;20487;-73
2023/04/01 03:28:49;;;;;;;5.60;2.47;;;;;;;;;;5092090;28;20538;-73
2023/04/01 03:31:19;;;;;;;7.30;2.17;;;;;;;;;;5092090;28;20456;-72
2023/04/01 03:33:49;;;;;;;5.70;2.77;;;;;;;;;;5088826;28;20871;-72
2023/04/01 03:36:22;;;;;;;4.43;1.93;;;;;;;;;;5089984;28;20476;-73
2023/04/01 03:38:49;;;;;;;4.00;2.10;;;;;;;;;;5090882;28;20452;-73
2023/04/01 03:41:22;;;;;;;5.70;2.80;;;;;;;;;;5092774;28;20463;-73
2023/04/01 03:43:52;;;;;;;5.33;2.20;;;;;;;;;;5093252;28;20902;-72
2023/04/01 03:49:11;;;;;;;6.37;2.60;;;;;;;;;;5065649;28;20437;-72
2023/04/01 03:51:38;;;;;;;6.60;2.70;;;;;;;;;;5080156;28;20558;-73
2023/04/01 03:54:08;;;;;;;9.43;3.30;;;;;;;;;;5077544;28;21006;-72
2023/04/01 03:56:41;;;;;;;5.90;2.70;;;;;;;;;;5076650;28;20532;-72
2023/04/01 03:59:10;;;;;;;5.60;2.63;;;;;;;;;;5071958;28;20457;-72
2023/04/01 04:01:37;;;;;;;7.23;2.60;;;;;;;;;;5057984;28;20470;-73
2023/04/01 04:04:05;;;;;;;3.20;2.30;;;;;;;;;;5056048;28;20446;-72
2023/04/01 04:06:40;;;;;;;7.03;3.00;;;;;;;;;;5057023;28;20884;-72
2023/04/01 04:09:08;;;;;;;6.00;2.80;;;;;;;;;;5057429;28;20505;-72
2023/04/01 04:11:40;;;;;;;4.60;2.53;;;;;;;;;;5057134;28;20465;-72
2023/04/01 04:14:07;;;;;;;4.93;2.50;;;;;;;;;;5071308;28;20549;-72
2023/04/01 04:16:37;;;;;;;4.73;2.30;;;;;;;;;;5075539;28;20456;-73
2023/04/01 04:19:04;;;;;;;4.50;2.43;;;;;;;;;;5075777;28;20445;-73
2023/04/01 04:21:32;;;;;;;5.53;2.67;;;;;;;;;;5075519;28;20468;-71
2023/04/01 04:24:01;;;;;;;4.97;2.90;;;;;;;;;;5076534;28;20457;-73
2023/04/01 04:26:31;;;;;;;4.97;3.17;;;;;;;;;;5071912;28;20442;-70
2023/04/01 04:29:00;;;;;;;6.27;2.73;;;;;;;;;;5059036;28;20481;-72
2023/04/01 04:31:28;;;;;;;6.80;3.30;;;;;;;;;;5060574;28;20462;-72
2023/04/01 04:34:09;;;;;;;4.20;2.80;;;;;;;;;;5059344;28;20497;-73
2023/04/01 04:36:41;;;;;;;5.97;3.27;;;;;;;;;;5058760;28;20759;-73
2023/04/01 04:39:15;;;;;;;6.13;2.40;;;;;;;;;;5060208;28;20446;-73
2023/04/01 04:41:49;;;;;;;7.67;3.50;;;;;;;;;;5059681;28;20873;-72
2023/04/01 04:47:11;;;;;;;4.23;2.53;;;;;;;;;;5032515;28;20880;-74
2023/04/01 04:49:39;;;;;;;9.77;3.03;;;;;;;;;;5057981;28;20456;-72
2023/04/01 04:52:06;;;;;;;8.70;2.93;;;;;;;;;;5057827;28;20454;-73
2023/04/01 04:54:39;;;;;;;4.33;2.37;;;;;;;;;;5071783;28;20487;-73
2023/04/01 04:57:08;;;;;;;4.83;2.53;;;;;;;;;;5076319;28;20442;-72
2023/04/01 04:59:37;;;;;;;6.60;2.70;;;;;;;;;;5075261;28;20453;-72
2023/04/01 05:02:04;;;;;;;4.20;2.80;;;;;;;;;;5077835;28;20452;-72
2023/04/01 05:04:35;;;;;;;5.73;2.87;;;;;;;;;;5075972;28;20461;-72
2023/04/01 05:07:11;;;;;;;4.20;2.83;;;;;;;;;;5071544;28;20464;-73
2023/04/01 05:09:38;;;;;;;5.70;3.20;;;;;;;;;;5064777;28;20489;-72
2023/04/01 05:12:06;;;;;;;5.50;3.00;;;;;;;;;;5056842;28;21072;-72
2023/04/01 05:14:33;;;;;;;5.95;2.75;;;;;;;;;;5071832;28;20480;-71
2023/04/01 05:17:02;;;;;;;6.40;3.20;;;;;;;;;;5077934;28;20211;-71
2023/04/01 05:19:30;;;;;;;9.90;3.53;;;;;;;;;;5077521;28;20456;-71
2023/04/01 05:22:02;;;;;;;7.27;3.47;;;;;;;;;;5077041;28;20461;-72
2023/04/01 05:24:29;;;;;;;7.53;3.97;;;;;;;;;;5074831;28;20464;-72
2023/04/01 05:26:59;;;;;;;7.83;3.30;;;;;;;;;;5058915;28;20856;-73
2023/04/01 05:29:27;;;;;;;9.20;2.80;;;;;;;;;;5055056;28;20499;-72
2023/04/01 05:31:55;;;;;;;14.43;4.23;;;;;;;;;;5074727;28;21039;-72
2023/04/01 05:34:24;;;;;;;7.50;2.80;;;;;;;;;;5074109;28;20505;-72
2023/04/01 05:36:51;;;;;;;5.00;2.90;;;;;;;;;;5074311;28;20980;-72
2023/04/01 05:39:19;;;;;;;5.63;2.83;;;;;;;;;;5074597;28;20651;-73
2023/04/01 05:41:46;;;;;;;8.00;3.43;;;;;;;;;;5074309;28;20577;-73
2023/04/01 05:44:15;;;;;;;7.43;3.17;;;;;;;;;;5074540;28;20464;-73
2023/04/01 05:46:43;;;;;;;7.70;3.37;;;;;;;;;;5073785;28;20448;-72
2023/04/01 05:49:10;;;;;;;6.93;3.67;;;;;;;;;;5075119;28;20476;-73
2023/04/01 05:51:40;;;;;;;5.97;2.83;;;;;;;;;;5075739;28;20445;-73
2023/04/01 05:54:10;;;;;;;5.70;2.90;;;;;;;;;;5075142;28;20480;-71
2023/04/01 05:56:38;;;;;;;3.73;2.70;;;;;;;;;;5076962;28;20485;-72
2023/04/01 05:59:05;;;;;;;7.30;3.30;;;;;;;;;;5074459;28;20463;-72
2023/04/01 06:01:34;;;;;;;7.63;3.27;;;;;;;;;;5073402;28;20457;-72
2023/04/01 06:04:01;;;;;;;5.80;3.00;;;;;;;;;;5075426;28;20484;-72
2023/04/01 06:06:30;;;;;;;7.73;2.97;;;;;;;;;;5073415;28;20515;-72
2023/04/01 06:09:00;;;;;;;6.53;3.53;;;;;;;;;;5073286;28;20469;-72
2023/04/01 06:11:35;;;;;;;6.40;3.13;;;;;;;;;;5062386;28;20557;-72
2023/04/01 06:14:18;;;;;;;7.00;3.10;;;;;;;;;;5053398;28;20555;-73
2023/04/01 06:16:54;;;;;;;5.60;3.03;;;;;;;;;;5066464;28;20476;-73
2023/04/01 06:19:33;;;;;;;7.60;3.73;;;;;;;;;;5072677;28;20453;-72
2023/04/01 06:22:18;;;;;;;6.30;3.93;;;;;;;;;;5055591;28;20453;-73
2023/04/01 06:24:54;;;;;;;9.30;4.00;;;;;;;;;;5052893;28;20441;-72
2023/04/01 06:27:28;;;;;;;6.23;3.63;;;;;;;;;;5052490;28;20476;-72
2023/04/01 06:30:03;;;;;;;7.10;4.07;;;;;;;;;;5058888;28;20651;-72
2023/04/01 06:32:39;;;;;;;8.57;3.73;;;;;;;;;;5073326;28;20452;-72
2023/04/01 06:35:20;;;;;;;8.20;4.10;;;;;;;;;;5071018;28;20492;-72
2023/04/01 06:38:09;;;;;;;7.07;4.07;;;;;;;;;;5071643;28;20869;-72
2023/04/01 06:40:51;;;;;;;6.30;4.30;;;;;;;;;;5068509;28;20453;-72
2023/04/01 06:43:27;;;;;;;5.68;3.50;;;;;;;;;;5070050;28;20453;-73
2023/04/01 06:46:00;;;;;;;6.50;3.50;;;;;;;;;;5073696;28;20198;-72
2023/04/01 06:48:47;;;;;;;4.93;3.20;;;;;;;;;;5054709;28;20523;-72
2023/04/01 06:51:23;;;;;;;2.20;1.40;;;;;;;;;;5060944;28;20471;-73
2023/04/01 06:53:57;;;;;;;2.00;1.00;;;;;;;;;;5074792;28;20742;-72
2023/04/01 06:56:29;;;;;;;1.70;1.10;;;;;;;;;;5072392;28;20527;-72
2023/04/01 06:59:06;;;;;;;2.83;1.73;;;;;;;;;;5072750;28;20468;-72
2023/04/01 07:01:36;;;;;;;2.40;1.33;;;;;;;;;;5058649;28;20493;-71
2023/04/01 07:04:08;;;;;;;1.90;1.00;;;;;;;;;;5051679;28;20555;-71
2023/04/01 07:06:40;;;;;;;2.60;1.60;;;;;;;;;;5052162;28;20540;-71
2023/04/01 07:09:08;;;;;;;1.93;1.20;;;;;;;;;;5053632;28;20453;-71
2023/04/01 07:11:38;;;;;;;2.20;1.40;;;;;;;;;;5053094;28;20433;-72
2023/04/01 07:14:13;;;;;;;2.20;1.20;;;;;;;;;;5058392;28;20724;-72
2023/04/01 07:16:43;;;;;;;2.90;1.60;;;;;;;;;;5049797;28;20476;-72
2023/04/01 07:19:15;;;;;;;2.40;1.40;;;;;;;;;;5049180;28;20813;-71
2023/04/01 07:21:46;;;;;;;2.00;1.20;;;;;;;;;;5050609;28;20460;-71
2023/04/01 07:24:18;;;;;;;2.90;1.83;;;;;;;;;;5052280;28;21107;-71
2023/04/01 07:26:49;;;;;;;2.23;1.20;;;;;;;;;;5052525;28;20445;-71
2023/04/01 07:29:18;;;;;;;2.73;1.50;;;;;;;;;;5053846;28;20527;-72
2023/04/01 07:31:58;;;;;;;2.17;1.53;;;;;;;;;;5053962;28;20556;-71
2023/04/01 07:34:27;;;;;;;3.73;1.30;;;;;;;;;;5053751;28;20520;-71
2023/04/01 07:37:01;;;;;;;1.53;0.90;;;;;;;;;;5053360;28;20485;-70
2023/04/01 07:39:32;;;;;;;1.97;1.00;;;;;;;;;;5053183;28;20466;-70
2023/04/01 07:42:03;;;;;;;2.40;1.07;;;;;;;;;;5065897;28;20453;-70
2023/04/01 07:44:37;;;;;;;2.07;1.13;;;;;;;;;;5076080;28;20448;-72
2023/04/01 07:47:11;;;;;;;1.70;1.00;;;;;;;;;;5073784;28;20547;-71
2023/04/01 07:49:43;;;;;;;2.27;1.23;;;;;;;;;;5076009;28;20465;-71
2023/04/01 07:52:15;;;;;;;1.70;0.80;;;;;;;;;;5061764;28;20477;-72
2023/04/01 07:54:49;;;;;;;2.10;1.13;;;;;;;;;;5065509;28;20465;-72
2023/04/01 07:57:22;;;;;;;1.77;0.97;;;;;;;;;;5058645;28;20910;-71
2023/04/01 07:59:57;;;;;;;1.60;0.80;;;;;;;;;;5072014;28;20491;-70
2023/04/01 08:02:30;;;;;;;1.60;0.80;;;;;;;;;;5074304;28;20488;-70
2023/04/01 08:05:06;;;;;;;3.20;0.80;;;;;;;;;;5072567;28;20453;-72
2023/04/01 08:07:38;;;;;;;1.57;1.10;;;;;;;;;;5072841;28;20452;-70
2023/04/01 08:10:23;;;;;;;2.17;0.80;;;;;;;;;;5073164;28;20448;-71
2023/04/01 08:13:05;;;;;;;1.37;0.80;;;;;;;;;;5072410;28;20552;-72
2023/04/01 08:15:43;;;;;;;1.97;0.80;;;;;;;;;;5062816;28;21138;-71
2023/04/01 08:18:28;;;;;;;1.50;0.80;;;;;;;;;;5074419;28;20437;-72
2023/04/01 08:21:00;;;;;;;3.10;1.03;;;;;;;;;;5075211;28;20471;-72
2023/04/01 08:23:44;;;;;;;1.53;0.90;;;;;;;;;;5073668;28;20526;-72
2023/04/01 08:26:14;;;;;;;1.40;0.70;;;;;;;;;;5074777;28;20477;-71
2023/04/01 08:28:46;;;;;;;1.60;0.80;;;;;;;;;;5071917;28;20497;-71
2023/04/01 08:31:31;;;;;;;2.10;1.03;;;;;;;;;;5072040;28;20462;-72
2023/04/01 08:37:04;;;;;;;2.47;1.00;;;;;;;;;;5072047;28;20481;-71
2023/04/01 08:39:33;;;;;;;1.57;0.83;;;;;;;;;;5074353;28;20461;-72
2023/04/01 08:42:26;;;;;;;1.60;0.80;;;;;;;;;;5077337;28;20449;-70
2023/04/01 08:45:22;;;;;;;1.60;0.83;;;;;;;;;;5076134;28;20562;-70
2023/04/01 08:48:11;;;;;;;1.73;0.80;;;;;;;;;;5062353;28;20502;-71
2023/04/01 08:50:57;;;;;;;1.60;0.70;;;;;;;;;;5065224;28;20460;-70
2023/04/01 08:53:40;;;;;;;1.57;0.70;;;;;;;;;;5063126;28;20475;-71
2023/04/01 08:59:15;;;;;;;1.53;0.70;;;;;;;;;;5091879;28;20487;-72
2023/04/01 09:02:04;;;;;;;1.97;0.80;;;;;;;;;;5084368;28;20463;-71
2023/04/01 09:04:42;;;;;;;1.57;0.77;;;;;;;;;;5079931;28;20902;-72
2023/04/01 09:10:45;;;;;;;1.73;0.90;;;;;;;;;;5094186;28;20459;-71
2023/04/01 09:13:43;;;;;;;2.43;1.40;;;;;;;;;;5090009;28;20516;-70
2023/04/01 09:16:24;;;;;;;2.70;0.90;;;;;;;;;;5089518;28;20491;-70
2023/04/01 09:19:02;;;;;;;2.80;1.37;;;;;;;;;;5106173;28;20482;-70
2023/04/01 09:21:51;;;;;;;2.63;0.90;;;;;;;;;;5110671;28;20470;-72
2023/04/01 09:24:38;;;;;;;5.07;1.23;;;;;;;;;;5109268;28;20866;-72
2023/04/01 09:27:06;;;;;;;1.53;0.70;;;;;;;;;;5107781;28;20462;-71
2023/04/01 09:29:55;;;;;;;1.73;0.80;;;;;;;;;;5108599;28;20561;-72
2023/04/01 09:32:56;;;;;;;2.03;1.30;;;;;;;;;;5110840;28;20439;-70
2023/04/01 09:35:25;;;;;;;2.17;0.87;;;;;;;;;;5109163;28;20799;-72
2023/04/01 09:38:02;;;;;;;1.70;0.90;;;;;;;;;;5109150;28;20595;-70
2023/04/01 09:40:40;;;;;;;5.70;3.93;;;;;;;;;;5110506;28;20466;-72
2023/04/01 09:43:23;;;;;;;1.77;1.00;;;;;;;;;;5111881;27;20534;-72
2023/04/01 09:45:58;;;;;;;1.63;1.00;;;;;;;;;;5108413;28;20473;-71
2023/04/01 09:48:43;;;;;;;1.40;0.80;;;;;;;;;;5110915;28;20453;-70
2023/04/01 09:51:20;;;;;;;2.13;1.20;;;;;;;;;;5110974;28;20886;-72
2023/04/01 09:54:04;;;;;;;2.33;1.10;;;;;;;;;;5112628;28;20535;-72
2023/04/01 09:56:54;;;;;;;1.80;0.90;;;;;;;;;;5112007;28;20479;-71
2023/04/01 09:59:49;;;;;;;4.03;0.93;;;;;;;;;;5116467;27;20469;-70
2023/04/01 10:02:36;;;;;;;1.63;0.80;;;;;;;;;;5102940;28;20467;-71
2023/04/01 10:05:19;;;;;;;4.20;1.40;;;;;;;;;;5110869;28;20516;-71
2023/04/01 10:11:27;;;;;;;1.80;0.80;;;;;;;;;;5107591;28;20458;-71
2023/04/01 10:14:03;;;;;;;1.80;0.90;;;;;;;;;;5038123;28;20459;-72
2023/04/01 10:16:46;;;;;;;2.00;1.00;;;;;;;;;;5077806;28;20499;-71
2023/04/01 10:19:48;;;;;;;1.77;0.90;;;;;;;;;;5069617;28;20460;-71
2023/04/01 10:22:39;;;;;;;1.73;0.90;;;;;;;;;;5052476;28;20484;-72
2023/04/01 10:25:45;;;;;;;;;;;;;;;;;;;;;
2023/04/01 10:31:15;;;;;;;2.07;1.13;;;;;;;;;;5060315;28;20501;-72
2023/04/01 10:33:55;;;;;;;2.33;1.17;;;;;;;;;;5062084;28;20499;-71
2023/04/01 10:39:24;;;;;;;2.23;0.93;;;;;;;;;;5079690;28;20529;-70
2023/04/01 10:42:03;;;;;;;1.77;0.80;;;;;;;;;;5090164;28;20460;-71
2023/04/01 10:44:50;;;;;;;2.80;1.13;;;;;;;;;;5086527;28;20459;-72
2023/04/01 10:51:03;;;;;;;1.60;0.90;;;;;;;;;;5068061;28;20535;-73
2023/04/01 10:56:20;;;;;;;2.47;1.40;;;;;;;;;;5121861;27;20930;-71
2023/04/01 10:59:04;;;;;;;1.80;1.00;;;;;;;;;;5136581;27;20466;-71
2023/04/01 11:02:13;;;;;;;1.60;0.80;;;;;;;;;;5136008;27;20473;-72
2023/04/01 11:05:09;;;;;;;1.50;0.70;;;;;;;;;;5072614;28;21153;-71
2023/04/01 11:07:58;;;;;;;2.07;1.00;;;;;;;;;;5071387;28;20872;-70
2023/04/01 11:10:44;;;;;;;2.23;0.80;;;;;;;;;;5067503;28;20441;-71
2023/04/01 11:13:36;;;;;;;2.00;1.00;;;;;;;;;;5051240;28;20449;-70
2023/04/01 11:16:19;;;;;;;1.63;0.80;;;;;;;;;;5050827;28;20446;-71
2023/04/01 11:19:08;;;;;;;2.20;0.90;;;;;;;;;;5050121;28;20445;-70
2023/04/01 11:21:54;;;;;;;1.73;0.80;;;;;;;;;;5102106;28;20538;-70
2023/04/01 11:24:35;;;;;;;2.10;1.30;;;;;;;;;;5114666;28;20741;-71
2023/04/01 11:27:09;;;;;;;2.03;0.90;;;;;;;;;;5116349;28;20447;-70
2023/04/01 11:32:59;;;;;;;1.63;0.90;;;;;;;;;;5113406;28;20469;-74
2023/04/01 11:35:46;;;;;;;2.20;1.10;;;;;;;;;;5116690;28;20454;-71
2023/04/01 11:38:21;;;;;;;2.77;0.70;;;;;;;;;;5123166;27;20920;-70
2023/04/01 11:40:53;;;;;;;1.87;1.10;;;;;;;;;;5117266;27;20553;-70
2023/04/01 11:43:27;;;;;;;2.40;1.10;;;;;;;;;;5132650;27;20583;-70
2023/04/01 11:46:10;;;;;;;2.90;1.37;;;;;;;;;;5134409;27;20855;-71
2023/04/01 11:48:52;;;;;;;1.97;1.20;;;;;;;;;;5134911;27;20437;-71
2023/04/01 11:51:57;;;;;;;1.83;0.83;;;;;;;;;;5134742;27;20461;-69
2023/04/01 11:54:33;;;;;;;3.70;1.97;;;;;;;;;;5086592;27;20493;-71
2023/04/01 11:57:15;;;;;;;2.30;1.30;;;;;;;;;;5136469;27;20974;-71
2023/04/01 11:59:57;;;;;;;3.63;2.30;;;;;;;;;;5125196;27;20564;-71
2023/04/01 12:02:47;;;;;;;8.67;5.80;;;;;;;;;;5124722;27;20538;-70
2023/04/01 12:05:31;;;;;;;1.60;0.80;;;;;;;;;;5126693;27;20878;-70
2023/04/01 12:08:08;;;;;;;3.23;1.10;;;;;;;;;;5127725;27;20594;-70
2023/04/01 12:10:41;;;;;;;3.47;2.27;;;;;;;;;;5115587;27;21089;-71
2023/04/01 12:13:16;;;;;;;2.57;0.93;;;;;;;;;;5131064;27;20452;-71
2023/04/01 12:15:56;;;;;;;3.03;1.50;;;;;;;;;;5130419;27;20450;-71
2023/04/01 12:21:16;;;;;;;2.10;1.00;;;;;;;;;;5132992;27;20536;-71
2023/04/01 12:23:53;;;;;;;1.70;1.10;;;;;;;;;;5131930;27;20518;-72
2023/04/01 12:26:49;;;;;;;3.60;1.70;;;;;;;;;;5120366;27;20593;-71
2023/04/01 12:29:30;;;;;;;3.23;2.23;;;;;;;;;;5121020;27;21037;-71
2023/04/01 12:32:01;;;;;;;2.93;1.97;;;;;;;;;;5129187;27;20453;-71
2023/04/01 12:37:49;;;;;;;3.70;1.63;;;;;;;;;;5032567;28;20482;-71
2023/04/01 12:40:41;;;;;;;2.50;1.37;;;;;;;;;;5120931;27;20467;-71
2023/04/01 12:43:25;;;;;;;1.80;0.90;;;;;;;;;;5113123;27;20885;-71
2023/04/01 12:46:03;;;;;;;3.33;1.20;;;;;;;;;;5128144;27;20490;-71
2023/04/01 12:48:50;;;;;;;1.90;1.20;;;;;;;;;;5130382;27;20529;-71
2023/04/01 12:54:20;;;;;;;3.10;1.80;;;;;;;;;;5111410;27;20564;-71
2023/04/01 13:03:07;;;;;;;3.80;1.93;;;;;;;;;;5090564;28;20438;-71
2023/04/01 13:05:53;;;;;;;3.50;1.93;;;;;;;;;;5110669;28;20811;-72
2023/04/01 13:08:31;;;;;;;3.60;1.83;;;;;;;;;;5081369;28;20456;-70
2023/04/01 13:11:18;;;;;;;2.43;1.77;;;;;;;;;;5110376;28;20451;-71
2023/04/01 13:14:03;;;;;;;2.90;1.77;;;;;;;;;;5104121;28;20664;-70
2023/04/01 13:16:37;;;;;;;3.23;1.50;;;;;;;;;;5108859;28;20467;-70
2023/04/01 13:19:09;;;;;;;3.30;2.27;;;;;;;;;;5108686;28;20479;-70
2023/04/01 13:25:05;;;;;;;4.80;2.47;;;;;;;;;;5061757;28;20488;-72
2023/04/01 13:33:42;;;;;;;4.13;2.20;;;;;;;;;;5087766;28;21172;-71
2023/04/01 13:36:32;;;;;;;4.87;2.30;;;;;;;;;;5079249;28;20458;-72
2023/04/01 13:39:21;;;;;;;3.37;2.23;;;;;;;;;;5062557;28;20520;-72
2023/04/01 13:42:03;;;;;;;4.40;1.83;;;;;;;;;;5083078;28;20455;-72
2023/04/01 13:44:35;;;;;;;3.20;1.90;;;;;;;;;;5111899;28;20535;-71
2023/04/01 13:47:19;;;;;;;3.83;1.83;;;;;;;;;;5108108;28;20498;-72
2023/04/01 13:50:10;;;;;;;4.10;2.40;;;;;;;;;;5086475;28;20917;-71
2023/04/01 13:52:59;;;;;;;3.87;1.60;;;;;;;;;;5091266;28;20441;-71
2023/04/01 13:58:58;;;;;;;3.37;2.37;;;;;;;;;;5070231;28;20481;-71
2023/04/01 14:01:45;;;;;;;2.37;1.90;;;;;;;;;;5094713;28;20472;-71
2023/04/01 14:04:32;;;;;;;3.90;1.93;;;;;;;;;;5081174;28;20492;-72
2023/04/01 14:07:05;;;;;;;5.20;2.20;;;;;;;;;;5095537;28;20458;-71
2023/04/01 14:12:55;;;;;;;4.90;2.43;;;;;;;;;;5082353;27;20474;-74
2023/04/01 14:15:38;;;;;;;4.30;2.83;;;;;;;;;;5116403;27;20457;-71
2023/04/01 14:21:42;;;;;;;7.90;2.23;;;;;;;;;;5095646;27;20473;-71
2023/04/01 14:24:33;;;;;;;6.93;2.57;;;;;;;;;;5150778;27;20456;-72
2023/04/01 14:27:19;;;;;;;3.73;1.80;;;;;;;;;;5151869;27;20468;-73
2023/04/01 14:32:56;;;;;;;4.25;2.60;;;;;;;;;;5094303;28;20592;-71
2023/04/01 14:35:27;;;;;;;3.57;1.80;;;;;;;;;;5111241;28;20535;-71
2023/04/01 14:38:06;;;;;;;4.30;2.40;;;;;;;;;;5126570;28;20581;-72
2023/04/01 14:40:50;;;;;;;3.53;1.90;;;;;;;;;;5132987;28;20454;-71
2023/04/01 14:43:38;;;;;;;2.60;1.53;;;;;;;;;;5132742;28;20458;-71
2023/04/01 14:46:21;;;;;;;4.27;2.30;;;;;;;;;;5123402;28;20488;-71
2023/04/01 14:48:57;;;;;;;4.33;1.83;;;;;;;;;;5123420;28;20540;-71
2023/04/01 14:51:33;;;;;;;4.23;2.37;;;;;;;;;;5131088;28;20771;-71
2023/04/01 14:54:22;;;;;;;3.63;2.27;;;;;;;;;;5129553;28;20876;-70
2023/04/01 14:56:51;;;;;;;3.83;2.03;;;;;;;;;;5115647;28;20447;-72
2023/04/01 14:59:32;;;;;;;5.30;1.87;;;;;;;;;;5148432;27;20485;-70
2023/04/01 15:02:04;;;;;;;3.20;2.20;;;;;;;;;;5150906;27;20540;-71
2023/04/01 15:04:41;;;;;;;5.27;1.90;;;;;;;;;;5149024;27;21067;-71
2023/04/01 15:07:24;;;;;;;5.40;2.33;;;;;;;;;;5148977;27;20543;-72
2023/04/01 15:10:00;;;;;;;6.57;2.80;;;;;;;;;;5129784;27;20897;-70
2023/04/01 15:12:32;;;;;;;4.20;2.47;;;;;;;;;;5130612;28;20487;-71
2023/04/01 15:15:22;;;;;;;4.40;1.70;;;;;;;;;;5128628;28;20452;-70
2023/04/01 15:18:06;;;;;;;5.27;3.00;;;;;;;;;;5125735;28;20570;-71
2023/04/01 15:20:53;;;;;;;5.27;2.60;;;;;;;;;;5129394;28;20876;-70
2023/04/01 15:23:29;;;;;;;6.53;3.10;;;;;;;;;;5110010;28;20451;-69
2023/04/01 15:26:10;;;;;;;3.90;2.30;;;;;;;;;;5126277;27;20510;-70
2023/04/01 15:28:41;;;;;;;6.13;3.03;;;;;;;;;;5129646;28;20453;-72
2023/04/01 15:31:18;;;;;;;3.60;2.20;;;;;;;;;;5132812;28;20465;-72
2023/04/01 15:34:13;;;;;;;65.27;43.13;;;;;;;;;;5131211;28;20435;-70
2023/04/01 15:36:53;;;;;;;4.00;3.13;;;;;;;;;;5122791;28;20569;-70
2023/04/01 15:45:34;;;;;;;3.50;3.17;;;;;;;;;;5103336;28;20447;-71
2023/04/01 15:51:21;;;;;;;4.50;2.63;;;;;;;;;;5089185;28;20993;-71
2023/04/01 15:54:05;;;;;;;3.60;2.47;;;;;;;;;;5100368;28;20455;-70
2023/04/01 15:56:55;;;;;;;7.00;2.73;;;;;;;;;;5090336;28;20447;-71
2023/04/01 15:59:30;;;;;;;6.37;2.40;;;;;;;;;;5104120;28;20474;-71
2023/04/01 16:02:04;;;;;;;4.30;2.73;;;;;;;;;;5132734;27;20547;-69
2023/04/01 16:05:05;;;;;;;;;;;;;;;;;;;;;
2023/04/01 16:07:43;;;;;;;6.43;3.70;;;;;;;;;;5105942;28;20443;-71
2023/04/01 16:10:29;;;;;;;5.23;3.17;;;;;;;;;;5102899;28;20466;-71
2023/04/01 16:13:03;;;;;;;15.00;6.30;;;;;;;;;;5109655;28;20519;-72
2023/04/01 16:15:33;;;;;;;10.50;4.93;;;;;;;;;;5111483;28;20495;-70
2023/04/01 16:18:19;;;;;;;7.40;3.63;;;;;;;;;;5112774;28;20924;-70
2023/04/01 16:21:00;;;;;;;11.83;7.73;;;;;;;;;;5118787;27;20442;-71
2023/04/01 16:26:22;;;;;;;8.73;4.87;;;;;;;;;;5070634;28;20455;-71
2023/04/01 16:29:00;;;;;;;11.70;3.80;;;;;;;;;;5112819;28;20455;-71
2023/04/01 16:31:33;;;;;;;8.33;3.70;;;;;;;;;;5111539;28;20498;-71
2023/04/01 16:34:11;;;;;;;6.10;3.73;;;;;;;;;;5113040;28;20482;-71
2023/04/01 16:36:45;;;;;;;6.53;3.90;;;;;;;;;;5113804;28;20948;-70
2023/04/01 16:39:38;;;;;;;6.03;3.93;;;;;;;;;;5113240;28;21141;-70
2023/04/01 16:42:58;;;;;;;9.40;4.73;;;;;;;;;;5101656;28;20792;-72
2023/04/01 16:49:10;;;;;;;8.57;4.37;;;;;;;;;;5128230;27;20462;-71
2023/04/01 16:51:54;;;;;;;9.57;3.70;;;;;;;;;;5072139;28;20508;-71
2023/04/01 16:54:30;;;;;;;8.60;4.23;;;;;;;;;;5121958;28;20996;-70
2023/04/01 16:59:48;;;;;;;8.30;3.57;;;;;;;;;;5084727;28;21112;-71
2023/04/01 17:02:27;;;;;;;11.40;7.70;;;;;;;;;;5088720;28;20452;-70
2023/04/01 17:05:14;;;;;;;6.20;2.83;;;;;;;;;;5088918;28;20440;-71
2023/04/01 17:08:03;;;;;;;6.13;3.50;;;;;;;;;;5085199;28;20484;-70
2023/04/01 17:10:36;;;;;;;4.87;3.00;;;;;;;;;;5087600;28;20479;-71
2023/04/01 17:13:14;;;;;;;4.40;3.13;;;;;;;;;;5086413;28;20543;-71